Time;durP1;ratioP1;P1;durP2;ratioP2;P2;SDS_P1;SDS_P2;PMS_P1;PMS_P2;Temp;Humidity;BMP_temperature;BMP_pressure;BME280_temperature;BME280_humidity;BME280_pressure;Samples;Min_cycle;Max_cycle;Signal;HPM_P1;HPM_P2
2023/04/01 00:01:00;;;;;;;0.95;0.40;;;8.90;2.90;;;;;;7363023;19;20828;-71
2023/04/01 00:03:30;;;;;;;4.22;0.60;;;8.80;3.10;;;;;;7365398;19;20066;-71
2023/04/01 00:06:02;;;;;;;2.47;0.40;;;8.80;2.60;;;;;;7368197;19;20014;-71
2023/04/01 00:08:32;;;;;;;1.20;0.45;;;8.90;2.40;;;;;;7390196;19;20074;-71
2023/04/01 00:11:02;;;;;;;2.42;0.60;;;8.90;1.90;;;;;;7367720;19;20007;-70
2023/04/01 00:13:32;;;;;;;2.20;0.50;;;8.90;2.00;;;;;;7366708;19;20042;-70
2023/04/01 00:16:05;;;;;;;1.95;0.65;;;8.90;2.20;;;;;;7370059;19;20326;-71
2023/04/01 00:18:50;;;;;;;1.15;0.63;;;8.90;1.00;;;;;;7366648;19;20011;-70
2023/04/01 00:21:22;;;;;;;3.22;0.80;;;8.90;1.30;;;;;;7367152;19;20011;-71
2023/04/01 00:23:52;;;;;;;1.55;0.70;;;8.90;1.30;;;;;;7389877;19;20029;-71
2023/04/01 00:26:24;;;;;;;0.77;0.45;;;8.90;1.30;;;;;;7368824;19;20009;-71
2023/04/01 00:28:54;;;;;;;2.10;0.65;;;9.00;1.60;;;;;;7366176;19;20003;-71
2023/04/01 00:31:27;;;;;;;1.85;0.63;;;9.00;2.00;;;;;;7365271;19;20006;-71
2023/04/01 00:33:57;;;;;;;0.75;0.50;;;9.00;2.40;;;;;;7368295;19;20019;-73
2023/04/01 00:36:27;;;;;;;1.88;0.60;;;8.90;2.90;;;;;;7368205;19;20019;-69
2023/04/01 00:38:58;;;;;;;1.77;0.47;;;9.00;2.80;;;;;;7367693;19;20043;-70
2023/04/01 00:41:28;;;;;;;3.90;0.70;;;8.90;2.70;;;;;;7389486;19;20026;-70
2023/04/01 00:44:20;;;;;;;3.22;0.65;;;8.90;2.60;;;;;;7373311;19;20011;-70
2023/04/01 00:46:54;;;;;;;1.45;0.45;;;8.90;2.10;;;;;;7377222;19;20431;-71
2023/04/01 00:49:28;;;;;;;2.17;0.52;;;8.90;2.50;;;;;;7372202;19;20018;-71
2023/04/01 00:52:02;;;;;;;1.67;0.60;;;8.90;1.90;;;;;;7373683;19;20007;-71
2023/04/01 00:54:33;;;;;;;2.45;0.82;;;8.90;1.50;;;;;;7373521;19;20691;-71
2023/04/01 00:57:08;;;;;;;3.13;0.60;;;9.00;1.20;;;;;;7375445;19;20350;-71
2023/04/01 00:59:43;;;;;;;1.92;0.60;;;9.00;1.30;;;;;;7396136;19;20015;-71
2023/04/01 01:02:18;;;;;;;3.63;0.70;;;9.10;1.00;;;;;;7372049;19;20003;-70
2023/04/01 01:04:48;;;;;;;1.98;0.68;;;9.10;1.00;;;;;;7372595;19;20362;-70
2023/04/01 01:07:29;;;;;;;2.17;0.82;;;9.10;1.00;;;;;;7374574;19;20085;-71
2023/04/01 01:10:08;;;;;;;2.92;0.70;;;9.20;1.00;;;;;;7372532;19;20017;-72
2023/04/01 01:12:43;;;;;;;1.63;0.50;;;9.20;1.00;;;;;;7373877;19;20327;-72
2023/04/01 01:15:22;;;;;;;3.45;0.68;;;9.20;1.00;;;;;;7374813;19;20014;-71
2023/04/01 01:18:00;;;;;;;3.55;1.02;;;9.20;1.00;;;;;;7396786;19;20058;-70
2023/04/01 01:20:57;;;;;;;3.13;0.82;;;9.20;1.00;;;;;;7370351;19;20006;-70
2023/04/01 01:24:07;;;;;;;3.20;0.93;;;9.20;1.00;;;;;;7372119;19;20014;-71
2023/04/01 01:26:49;;;;;;;2.50;0.80;;;9.20;1.00;;;;;;7374512;19;20014;-70
2023/04/01 01:29:44;;;;;;;3.80;0.68;;;9.20;1.00;;;;;;7370975;19;20003;-70
2023/04/01 01:32:28;;;;;;;2.75;0.55;;;9.20;1.00;;;;;;7371739;19;20683;-70
2023/04/01 01:35:12;;;;;;;1.85;0.60;;;9.20;1.00;;;;;;7372819;19;20015;-70
2023/04/01 01:37:45;;;;;;;3.35;1.10;;;9.20;1.00;;;;;;7372944;19;20014;-71
2023/04/01 01:40:17;;;;;;;2.42;0.55;;;9.20;1.00;;;;;;7370701;19;20458;-71
2023/04/01 01:42:50;;;;;;;3.67;0.75;;;9.20;1.00;;;;;;7370850;19;20014;-70
2023/04/01 01:45:24;;;;;;;3.03;0.52;;;9.20;1.00;;;;;;7373023;19;20025;-70
2023/04/01 01:47:54;;;;;;;1.70;0.55;;;9.20;1.00;;;;;;7395266;19;20025;-70
2023/04/01 01:50:28;;;;;;;1.60;0.47;;;9.20;1.00;;;;;;7370512;19;20037;-70
2023/04/01 01:53:04;;;;;;;2.15;0.50;;;9.20;1.00;;;;;;7369836;19;20485;-70
2023/04/01 01:55:36;;;;;;;2.85;0.52;;;9.20;1.00;;;;;;7371126;19;20015;-70
2023/04/01 01:58:14;;;;;;;3.22;0.70;;;9.20;1.00;;;;;;7372791;19;20031;-70
2023/04/01 02:00:48;;;;;;;1.08;0.40;;;9.20;1.00;;;;;;7368371;19;20367;-70
2023/04/01 02:03:19;;;;;;;3.35;0.68;;;9.20;2.80;;;;;;7371102;19;20037;-70
2023/04/01 02:05:55;;;;;;;0.80;0.40;;;9.20;4.30;;;;;;7394681;19;20069;-71
2023/04/01 02:08:29;;;;;;;2.20;0.68;;;9.10;5.10;;;;;;7372101;19;20031;-71
2023/04/01 02:11:02;;;;;;;1.83;0.35;;;9.10;7.00;;;;;;7370398;19;20025;-70
2023/04/01 02:13:41;;;;;;;3.90;1.05;;;9.00;7.80;;;;;;7369926;19;20652;-69
2023/04/01 02:16:18;;;;;;;3.13;0.63;;;9.00;7.80;;;;;;7370923;19;20002;-70
2023/04/01 02:18:53;;;;;;;2.58;0.52;;;8.90;7.90;;;;;;7370204;19;20006;-70
2023/04/01 02:21:28;;;;;;;2.88;0.60;;;8.90;9.00;;;;;;7370665;19;20018;-71
2023/04/01 02:24:00;;;;;;;2.45;0.50;;;8.90;9.10;;;;;;7369551;19;20014;-71
2023/04/01 02:26:30;;;;;;;2.92;0.50;;;8.90;8.80;;;;;;7394363;19;20003;-69
2023/04/01 02:29:03;;;;;;;1.63;0.60;;;8.90;7.80;;;;;;7368957;19;20013;-70
2023/04/01 02:31:34;;;;;;;2.13;0.40;;;8.90;7.80;;;;;;7368245;19;20517;-71
2023/04/01 02:34:05;;;;;;;1.83;0.65;;;8.90;7.30;;;;;;7371652;19;20010;-71
2023/04/01 02:36:39;;;;;;;3.08;0.50;;;8.90;7.80;;;;;;7370136;19;20046;-71
2023/04/01 02:39:10;;;;;;;1.23;0.50;;;8.90;7.80;;;;;;7370245;19;20026;-71
2023/04/01 02:41:43;;;;;;;2.80;0.40;;;8.90;5.80;;;;;;7390998;19;20362;-71
2023/04/01 02:44:16;;;;;;;0.60;0.25;;;9.00;4.90;;;;;;7369245;19;20011;-71
2023/04/01 02:46:46;;;;;;;3.33;0.70;;;9.00;4.70;;;;;;7368887;19;20014;-71
2023/04/01 02:49:16;;;;;;;2.05;0.50;;;9.00;4.70;;;;;;7370038;19;20388;-72
2023/04/01 02:51:48;;;;;;;6.03;0.95;;;8.90;4.90;;;;;;7368573;19;20475;-71
2023/04/01 02:54:18;;;;;;;0.68;0.20;;;9.00;5.10;;;;;;7370267;19;20014;-70
2023/04/01 02:56:48;;;;;;;2.55;0.40;;;8.90;4.90;;;;;;7393512;19;20010;-70
2023/04/01 02:59:18;;;;;;;0.70;0.30;;;8.90;5.50;;;;;;7369233;19;20584;-71
2023/04/01 03:01:48;;;;;;;3.35;0.52;;;8.90;5.40;;;;;;7368133;19;20014;-71
2023/04/01 03:04:18;;;;;;;5.63;0.60;;;8.90;5.30;;;;;;7366568;19;20011;-71
2023/04/01 03:06:51;;;;;;;0.75;0.38;;;8.90;5.50;;;;;;7369340;19;20036;-71
2023/04/01 03:09:21;;;;;;;1.65;0.32;;;8.80;4.90;;;;;;7369043;19;20479;-71
2023/04/01 03:11:51;;;;;;;2.53;0.47;;;8.80;4.60;;;;;;7391409;19;20015;-71
2023/04/01 03:14:20;;;;;;;3.65;0.68;;;8.70;5.90;;;;;;7369181;19;20051;-70
2023/04/01 03:16:50;;;;;;;1.63;0.30;;;8.70;5.40;;;;;;7368622;19;20019;-70
2023/04/01 03:19:20;;;;;;;0.55;0.22;;;8.70;5.30;;;;;;7366560;19;20006;-70
2023/04/01 03:21:53;;;;;;;1.15;0.50;;;8.70;5.00;;;;;;7368937;19;20019;-70
2023/04/01 03:24:23;;;;;;;1.40;0.40;;;8.70;5.00;;;;;;7366812;19;20028;-70
2023/04/01 03:26:53;;;;;;;1.17;0.30;;;8.70;5.10;;;;;;7392574;19;20014;-69
2023/04/01 03:29:22;;;;;;;4.13;0.50;;;8.70;4.80;;;;;;7367593;19;20014;-70
2023/04/01 03:31:52;;;;;;;1.95;0.50;;;8.70;3.70;;;;;;7366971;19;20022;-71
2023/04/01 03:34:22;;;;;;;1.23;0.32;;;8.70;2.90;;;;;;7368032;19;20495;-71
2023/04/01 03:36:55;;;;;;;1.58;0.50;;;8.70;2.10;;;;;;7369614;19;20014;-70
2023/04/01 03:39:25;;;;;;;2.05;0.40;;;8.70;1.20;;;;;;7367232;19;20384;-70
2023/04/01 03:41:55;;;;;;;1.50;0.30;;;8.70;2.20;;;;;;7391504;19;20013;-70
2023/04/01 03:44:25;;;;;;;2.80;0.47;;;8.60;3.30;;;;;;7367339;19;20026;-70
2023/04/01 03:46:55;;;;;;;0.50;0.15;;;8.50;3.60;;;;;;7367382;19;20042;-70
2023/04/01 03:49:25;;;;;;;1.35;0.43;;;8.50;3.80;;;;;;7366834;19;20010;-70
2023/04/01 03:51:57;;;;;;;1.13;0.30;;;8.40;4.00;;;;;;7366950;19;20027;-71
2023/04/01 03:54:27;;;;;;;3.70;0.40;;;8.40;4.70;;;;;;7367221;19;20014;-70
2023/04/01 03:56:57;;;;;;;0.77;0.30;;;8.40;5.00;;;;;;7370605;19;20042;-71
2023/04/01 03:59:27;;;;;;;2.72;0.30;;;8.40;5.30;;;;;;7389159;19;20035;-70
2023/04/01 04:01:57;;;;;;;3.08;0.40;;;8.50;4.00;;;;;;7366844;19;20568;-71
2023/04/01 04:04:27;;;;;;;1.60;0.20;;;8.40;4.00;;;;;;7366872;19;20510;-71
2023/04/01 04:07:00;;;;;;;3.40;0.50;;;8.30;4.60;;;;;;7368061;19;20031;-71
2023/04/01 04:09:32;;;;;;;1.92;0.38;;;8.40;4.30;;;;;;7366866;19;20355;-70
2023/04/01 04:12:02;;;;;;;1.15;0.35;;;8.30;3.70;;;;;;7367973;19;20029;-71
2023/04/01 04:14:32;;;;;;;1.02;0.20;;;8.30;4.10;;;;;;7389529;19;20014;-71
2023/04/01 04:17:02;;;;;;;1.30;0.30;;;8.30;2.70;;;;;;7365742;19;20394;-70
2023/04/01 04:19:35;;;;;;;2.30;0.40;;;8.30;3.00;;;;;;7364175;19;20477;-71
2023/04/01 04:22:08;;;;;;;2.08;0.30;;;8.30;2.50;;;;;;7368097;19;20015;-70
2023/04/01 04:24:38;;;;;;;2.90;0.30;;;8.40;1.40;;;;;;7366220;19;20010;-71
2023/04/01 04:27:08;;;;;;;0.35;0.17;;;8.40;1.10;;;;;;7368452;19;20017;-70
2023/04/01 04:29:38;;;;;;;1.67;0.40;;;8.40;1.00;;;;;;7386168;19;20703;-71
2023/04/01 04:32:08;;;;;;;3.75;0.50;;;8.50;1.00;;;;;;7365837;19;20530;-70
2023/04/01 04:34:38;;;;;;;1.85;0.40;;;8.50;1.00;;;;;;7367209;19;20015;-71
2023/04/01 04:37:10;;;;;;;1.00;0.30;;;8.50;1.00;;;;;;7368285;19;20003;-71
2023/04/01 04:39:40;;;;;;;0.70;0.20;;;8.50;1.00;;;;;;7364839;19;20111;-70
2023/04/01 04:42:10;;;;;;;2.42;0.73;;;8.50;1.00;;;;;;7368256;19;20361;-70
2023/04/01 04:44:41;;;;;;;1.23;0.30;;;8.60;1.00;;;;;;7387468;19;20022;-70
2023/04/01 04:47:11;;;;;;;1.75;0.30;;;8.50;1.00;;;;;;7366773;19;20012;-71
2023/04/01 04:49:41;;;;;;;1.85;0.40;;;8.50;1.00;;;;;;7363428;19;20022;-70
2023/04/01 04:52:13;;;;;;;3.03;0.40;;;8.40;1.00;;;;;;7366992;19;20094;-71
2023/04/01 04:54:43;;;;;;;1.25;0.25;;;8.40;1.00;;;;;;7365315;19;20078;-71
2023/04/01 04:57:13;;;;;;;0.93;0.20;;;8.40;1.00;;;;;;7367761;19;20380;-71
2023/04/01 04:59:43;;;;;;;2.85;0.50;;;8.40;1.00;;;;;;7385919;19;20025;-70
2023/04/01 05:02:13;;;;;;;1.48;0.43;;;8.40;1.00;;;;;;7366304;19;20007;-70
2023/04/01 05:04:43;;;;;;;1.13;0.30;;;8.40;1.00;;;;;;7364066;19;20017;-70
2023/04/01 05:07:16;;;;;;;1.58;0.22;;;8.30;1.00;;;;;;7367285;19;20085;-70
2023/04/01 05:09:47;;;;;;;1.20;0.38;;;8.30;1.00;;;;;;7364833;19;20010;-71
2023/04/01 05:12:17;;;;;;;0.95;0.50;;;8.30;1.00;;;;;;7367786;19;20037;-70
2023/04/01 05:14:47;;;;;;;3.22;0.40;;;8.30;1.00;;;;;;7388503;19;20020;-70
2023/04/01 05:17:17;;;;;;;1.83;0.50;;;8.30;1.00;;;;;;7365976;19;20014;-71
2023/04/01 05:19:46;;;;;;;1.55;0.38;;;8.30;1.00;;;;;;7362059;19;20010;-70
2023/04/01 05:22:19;;;;;;;2.25;0.35;;;8.30;1.00;;;;;;7367305;19;20009;-71
2023/04/01 05:24:50;;;;;;;2.15;0.40;;;8.30;1.00;;;;;;7365135;19;20135;-70
2023/04/01 05:27:19;;;;;;;2.80;0.80;;;8.30;1.00;;;;;;7364938;19;20437;-70
2023/04/01 05:29:49;;;;;;;2.30;0.43;;;8.40;1.00;;;;;;7391389;19;20179;-70
2023/04/01 05:32:19;;;;;;;0.80;0.35;;;8.40;1.00;;;;;;7372402;19;20018;-71
2023/04/01 05:34:52;;;;;;;1.33;0.52;;;8.50;1.00;;;;;;7372313;19;20675;-70
2023/04/01 05:37:25;;;;;;;1.13;0.40;;;8.50;1.00;;;;;;7372678;19;20547;-71
2023/04/01 05:39:55;;;;;;;2.03;0.50;;;8.50;1.00;;;;;;7370015;19;20043;-71
2023/04/01 05:42:25;;;;;;;0.75;0.50;;;8.60;1.00;;;;;;7371904;19;20074;-72
2023/04/01 05:44:55;;;;;;;1.85;0.47;;;8.60;1.00;;;;;;7393868;19;20416;-71
2023/04/01 05:47:25;;;;;;;4.20;0.70;;;8.60;1.00;;;;;;7372929;19;20022;-70
2023/04/01 05:49:55;;;;;;;1.90;0.88;;;8.70;1.00;;;;;;7369099;19;20398;-71
2023/04/01 05:52:27;;;;;;;2.03;0.75;;;8.80;1.00;;;;;;7371030;19;20384;-71
2023/04/01 05:54:58;;;;;;;1.77;0.57;;;8.80;1.00;;;;;;7371055;19;20043;-71
2023/04/01 05:57:28;;;;;;;1.88;0.50;;;8.90;1.00;;;;;;7372596;19;20018;-71
2023/04/01 05:59:58;;;;;;;3.08;0.60;;;8.90;1.00;;;;;;7370490;19;20022;-71
2023/04/01 06:02:28;;;;;;;1.05;0.50;;;9.00;1.00;;;;;;7393814;19;20010;-71
2023/04/01 06:05:05;;;;;;;2.67;0.68;;;9.00;1.00;;;;;;7369536;19;20014;-71
2023/04/01 06:07:38;;;;;;;4.40;0.57;;;9.10;1.00;;;;;;7371256;19;20006;-70
2023/04/01 06:10:14;;;;;;;1.67;0.57;;;9.20;1.00;;;;;;7370479;19;20017;-71
2023/04/01 06:12:54;;;;;;;2.90;0.50;;;9.20;1.00;;;;;;7371510;19;20011;-71
2023/04/01 06:15:36;;;;;;;2.92;0.47;;;9.30;1.00;;;;;;7371957;19;20019;-71
2023/04/01 06:18:22;;;;;;;3.03;0.70;;;9.30;1.00;;;;;;7372488;19;20014;-71
2023/04/01 06:21:02;;;;;;;2.38;0.55;;;9.40;1.00;;;;;;7390062;19;20096;-72
2023/04/01 06:23:59;;;;;;;2.60;0.50;;;9.50;1.00;;;;;;7369135;19;20010;-71
2023/04/01 06:26:36;;;;;;;1.80;0.57;;;9.40;1.00;;;;;;7369990;19;20501;-71
2023/04/01 06:29:29;;;;;;;2.88;0.40;;;9.60;1.00;;;;;;7368797;19;20041;-70
2023/04/01 06:32:15;;;;;;;3.03;0.82;;;9.50;1.00;;;;;;7370404;19;20006;-71
2023/04/01 06:35:05;;;;;;;1.33;0.47;;;9.60;1.00;;;;;;7370229;19;20090;-70
2023/04/01 06:37:51;;;;;;;0.98;0.50;;;9.60;1.00;;;;;;7370479;19;20015;-70
2023/04/01 06:40:47;;;;;;;1.67;0.57;;;9.70;1.00;;;;;;7367894;19;20035;-71
2023/04/01 06:43:23;;;;;;;1.90;0.40;;;9.70;1.00;;;;;;7369554;19;20469;-71
2023/04/01 06:45:58;;;;;;;2.67;0.65;;;9.70;1.00;;;;;;7369559;19;20014;-71
2023/04/01 06:48:44;;;;;;;1.15;0.40;;;9.80;1.00;;;;;;7369618;19;20014;-71
2023/04/01 06:51:24;;;;;;;1.67;0.40;;;9.80;1.00;;;;;;7369598;19;20374;-71
2023/04/01 06:54:02;;;;;;;3.00;0.57;;;9.80;1.00;;;;;;7391971;19;20018;-71
2023/04/01 06:56:38;;;;;;;0.70;0.40;;;9.70;1.00;;;;;;7370809;19;20056;-71
2023/04/01 06:59:15;;;;;;;0.52;0.20;;;9.80;1.00;;;;;;7368881;19;20046;-71
2023/04/01 07:01:49;;;;;;;1.40;0.40;;;9.80;1.00;;;;;;7369009;19;20089;-71
2023/04/01 07:04:22;;;;;;;;;;;9.80;1.00;;;;;;7369677;19;20006;-71
2023/04/01 07:06:56;;;;;;;1.95;0.45;;;9.80;1.00;;;;;;7369011;19;19903;-71
2023/04/01 07:09:32;;;;;;;2.58;0.55;;;9.80;1.00;;;;;;7367970;19;20018;-70
2023/04/01 07:12:12;;;;;;;1.88;0.45;;;9.90;1.00;;;;;;7370060;19;20373;-70
2023/04/01 07:14:45;;;;;;;0.73;0.30;;;9.90;1.00;;;;;;7390960;19;20010;-70
2023/04/01 07:17:20;;;;;;;0.88;0.30;;;10.00;1.00;;;;;;7368998;19;20015;-70
2023/04/01 07:19:54;;;;;;;2.70;0.63;;;9.90;1.00;;;;;;7364745;19;20018;-70
2023/04/01 07:22:28;;;;;;;;;;;9.80;1.00;;;;;;7369871;19;20008;-71
2023/04/01 07:25:00;;;;;;;2.10;0.30;;;9.90;1.00;;;;;;7368296;19;19915;-71
2023/04/01 07:27:32;;;;;;;2.50;0.50;;;9.90;1.00;;;;;;7370346;19;20407;-70
2023/04/01 07:30:04;;;;;;;0.38;0.30;;;9.90;1.00;;;;;;7366745;19;20010;-71
2023/04/01 07:32:44;;;;;;;0.65;0.20;;;9.90;1.00;;;;;;7391258;19;20067;-71
2023/04/01 07:35:30;;;;;;;2.78;0.30;;;9.90;1.00;;;;;;7369137;19;20003;-71
2023/04/01 07:38:13;;;;;;;1.45;0.35;;;9.90;1.00;;;;;;7368937;19;20014;-71
2023/04/01 07:40:51;;;;;;;1.08;0.22;;;9.80;1.00;;;;;;7364699;19;20014;-71
2023/04/01 07:43:43;;;;;;;2.42;0.40;;;9.90;1.00;;;;;;7367808;19;20018;-70
2023/04/01 07:46:25;;;;;;;1.55;0.52;;;9.90;1.00;;;;;;7367716;19;20013;-70
2023/04/01 07:49:00;;;;;;;1.83;0.52;;;10.00;1.00;;;;;;7368929;19;20007;-70
2023/04/01 07:51:36;;;;;;;1.52;0.50;;;10.00;1.00;;;;;;7365152;19;20014;-71
2023/04/01 07:54:13;;;;;;;1.50;0.40;;;10.00;1.00;;;;;;7368430;19;20053;-70
2023/04/01 07:56:54;;;;;;;1.45;0.38;;;10.00;1.00;;;;;;7390494;19;20386;-71
2023/04/01 07:59:32;;;;;;;1.92;0.40;;;10.10;1.00;;;;;;7367027;19;20095;-70
2023/04/01 08:02:17;;;;;;;1.33;0.50;;;10.20;1.00;;;;;;7366953;19;20042;-71
2023/04/01 08:04:58;;;;;;;5.13;0.70;;;10.20;1.00;;;;;;7366784;19;20022;-71
2023/04/01 08:07:35;;;;;;;1.02;0.35;;;10.30;1.00;;;;;;7367289;19;20542;-71
2023/04/01 08:10:12;;;;;;;1.58;0.50;;;10.20;1.00;;;;;;7366032;19;20015;-70
2023/04/01 08:12:53;;;;;;;1.60;0.22;;;10.40;1.00;;;;;;7367428;19;20069;-70
2023/04/01 08:15:30;;;;;;;5.38;1.33;;;10.40;1.00;;;;;;7366600;19;20025;-71
2023/04/01 08:18:10;;;;;;;1.27;0.50;;;10.40;1.00;;;;;;7368289;19;20360;-70
2023/04/01 08:20:46;;;;;;;2.22;0.40;;;10.30;1.00;;;;;;7385686;19;20026;-71
2023/04/01 08:23:19;;;;;;;1.65;0.55;;;10.40;1.00;;;;;;7368625;19;20014;-71
2023/04/01 08:25:54;;;;;;;1.00;0.35;;;10.50;1.00;;;;;;7366523;19;20014;-69
2023/04/01 08:28:28;;;;;;;4.70;0.35;;;10.50;1.00;;;;;;7366742;19;20014;-70
2023/04/01 08:31:05;;;;;;;1.98;0.50;;;10.40;1.00;;;;;;7363238;19;20010;-70
2023/04/01 08:33:36;;;;;;;0.73;0.30;;;10.30;1.00;;;;;;7367889;19;20391;-71
2023/04/01 08:36:11;;;;;;;1.65;0.40;;;10.40;1.00;;;;;;7367933;19;20425;-71
2023/04/01 08:38:45;;;;;;;1.52;0.52;;;10.40;1.00;;;;;;7389286;19;20035;-70
2023/04/01 08:41:39;;;;;;;2.40;0.30;;;10.40;1.00;;;;;;7364789;19;20011;-71
2023/04/01 08:44:32;;;;;;;1.48;0.50;;;10.00;1.00;;;;;;7364904;19;20067;-70
2023/04/01 08:47:27;;;;;;;1.73;0.40;;;10.00;1.00;;;;;;7363878;19;20052;-71
2023/04/01 08:50:19;;;;;;;1.98;0.70;;;9.90;1.70;;;;;;7363647;19;20396;-72
2023/04/01 08:52:58;;;;;;;2.95;0.80;;;9.80;3.10;;;;;;7365809;19;20014;-72
2023/04/01 08:55:38;;;;;;;1.70;0.57;;;9.70;3.30;;;;;;7365293;19;20077;-69
2023/04/01 08:58:32;;;;;;;1.58;0.45;;;9.70;3.90;;;;;;7367654;19;20407;-70
2023/04/01 09:01:20;;;;;;;2.53;0.60;;;9.70;4.20;;;;;;7362541;19;20466;-71
2023/04/01 09:04:16;;;;;;;0.60;0.30;;;9.70;4.60;;;;;;7372150;19;20023;-70
2023/04/01 09:07:02;;;;;;;1.70;0.60;;;9.80;4.70;;;;;;7371994;19;20037;-71
2023/04/01 09:09:51;;;;;;;1.00;0.63;;;9.70;4.10;;;;;;7371838;19;20356;-70
2023/04/01 09:12:37;;;;;;;1.88;0.30;;;9.80;4.00;;;;;;7352315;19;20018;-70
2023/04/01 09:15:37;;;;;;;0.90;0.40;;;9.90;2.70;;;;;;7370787;19;20027;-69
2023/04/01 09:18:23;;;;;;;0.80;0.28;;;10.00;1.00;;;;;;7371971;19;20006;-70
2023/04/01 09:21:12;;;;;;;3.88;0.40;;;10.10;1.00;;;;;;7386157;19;20018;-70
2023/04/01 09:24:05;;;;;;;2.10;0.80;;;10.20;1.00;;;;;;7371535;19;20040;-71
2023/04/01 09:26:55;;;;;;;2.53;0.38;;;10.40;1.00;;;;;;7371331;19;20007;-68
2023/04/01 09:29:42;;;;;;;2.00;0.50;;;10.50;1.00;;;;;;7367933;19;20015;-70
2023/04/01 09:32:35;;;;;;;1.95;0.68;;;10.70;1.00;;;;;;7369422;19;20039;-70
2023/04/01 09:35:22;;;;;;;1.00;0.52;;;10.80;1.00;;;;;;7372255;19;20489;-70
2023/04/01 09:38:06;;;;;;;0.55;0.28;;;10.70;1.00;;;;;;7372727;19;20015;-71
2023/04/01 09:40:40;;;;;;;;;;;10.60;1.00;;;;;;7366781;19;20422;-68
2023/04/01 09:43:36;;;;;;;0.68;0.30;;;10.40;1.00;;;;;;7370084;19;19979;-70
2023/04/01 09:46:32;;;;;;;1.38;0.25;;;10.50;1.00;;;;;;7370019;19;20022;-70
2023/04/01 09:49:20;;;;;;;0.60;0.28;;;10.50;1.00;;;;;;7369809;19;20019;-69
2023/04/01 09:52:01;;;;;;;1.13;0.30;;;10.40;1.00;;;;;;7368259;19;20018;-69
2023/04/01 09:55:00;;;;;;;0.55;0.25;;;10.50;1.00;;;;;;7370147;19;20011;-69
2023/04/01 09:57:55;;;;;;;0.38;0.20;;;10.70;1.00;;;;;;7370513;19;20082;-70
2023/04/01 10:00:50;;;;;;;0.55;0.22;;;10.60;1.00;;;;;;7366161;19;20134;-69
2023/04/01 10:03:57;;;;;;;0.95;0.17;;;10.60;1.00;;;;;;7367409;19;20440;-70
2023/04/01 10:06:53;;;;;;;0.50;0.28;;;10.60;1.00;;;;;;7370595;19;20039;-69
2023/04/01 10:09:49;;;;;;;1.05;0.20;;;10.50;1.00;;;;;;7367681;19;20511;-70
2023/04/01 10:12:41;;;;;;;0.77;0.28;;;10.60;1.00;;;;;;7368973;19;20090;-72
2023/04/01 10:15:34;;;;;;;0.50;0.20;;;10.60;1.00;;;;;;7369405;19;20010;-69
2023/04/01 10:18:29;;;;;;;0.63;0.25;;;10.50;1.00;;;;;;7370509;19;20010;-71
2023/04/01 10:21:19;;;;;;;0.28;0.20;;;10.60;1.00;;;;;;7366130;19;20014;-71
2023/04/01 10:24:14;;;;;;;0.40;0.22;;;10.70;1.00;;;;;;7391494;19;20018;-71
2023/04/01 10:27:06;;;;;;;1.13;0.30;;;10.70;1.00;;;;;;7370897;19;20010;-70
2023/04/01 10:30:07;;;;;;;0.20;0.10;;;10.50;1.00;;;;;;7366789;19;20010;-70
2023/04/01 10:33:06;;;;;;;0.45;0.20;;;10.50;1.00;;;;;;7370240;19;20398;-70
2023/04/01 10:36:07;;;;;;;0.50;0.20;;;10.50;1.00;;;;;;7367560;19;20369;-69
2023/04/01 10:39:13;;;;;;;0.13;0.10;;;10.50;1.00;;;;;;7371151;19;20121;-71
2023/04/01 10:42:22;;;;;;;0.45;0.20;;;10.60;1.00;;;;;;7366917;19;20451;-70
2023/04/01 10:45:22;;;;;;;1.20;0.17;;;10.60;1.00;;;;;;7266316;19;2004259;-69
2023/04/01 10:48:36;;;;;;;1.35;0.20;;;10.60;1.00;;;;;;7390944;19;20142;-70
2023/04/01 10:51:26;;;;;;;0.17;0.10;;;10.60;1.00;;;;;;7262896;19;2004402;-70
2023/04/01 10:54:23;;;;;;;0.82;0.20;;;10.60;1.00;;;;;;7390524;19;20664;-72
2023/04/01 10:57:00;;;;;;;0.32;0.20;;;10.50;1.00;;;;;;7393172;19;20066;-69
2023/04/01 11:00:07;;;;;;;0.30;0.10;;;10.50;1.00;;;;;;7367646;19;20483;-70
2023/04/01 11:03:06;;;;;;;0.60;0.30;;;10.50;1.00;;;;;;7367634;19;20015;-71
2023/04/01 11:06:15;;;;;;;0.20;0.10;;;10.70;1.00;;;;;;7368194;19;20024;-71
2023/04/01 11:09:26;;;;;;;0.52;0.25;;;10.70;1.00;;;;;;7364993;19;20017;-71
2023/04/01 11:12:25;;;;;;;0.73;0.22;;;10.70;1.00;;;;;;7263655;19;2004368;-70
2023/04/01 11:15:24;;;;;;;0.30;0.30;;;10.70;1.00;;;;;;7390145;19;20019;-70
2023/04/01 11:18:24;;;;;;;0.13;0.10;;;10.70;1.00;;;;;;7266244;19;2004424;-70
2023/04/01 11:21:37;;;;;;;0.60;0.10;;;10.90;1.00;;;;;;7387074;19;20074;-71
2023/04/01 11:24:29;;;;;;;0.50;0.20;;;10.80;1.00;;;;;;7266330;19;2004357;-71
2023/04/01 11:27:09;;;;;;;0.63;0.20;;;10.90;1.00;;;;;;7366996;19;20014;-70
2023/04/01 11:29:53;;;;;;;0.43;0.10;;;11.00;1.00;;;;;;7387374;19;20538;-71
2023/04/01 11:32:49;;;;;;;0.10;0.00;;;11.10;1.00;;;;;;7367468;19;20014;-70
2023/04/01 11:35:33;;;;;;;0.65;0.22;;;11.10;1.00;;;;;;7367158;19;20070;-71
2023/04/01 11:38:18;;;;;;;2.13;0.47;;;11.30;1.00;;;;;;7368283;19;20382;-71
2023/04/01 11:40:52;;;;;;;;;;;11.20;1.00;;;;;;7363718;19;20031;-70
2023/04/01 11:43:30;;;;;;;1.25;0.10;;;11.40;1.00;;;;;;7366524;19;19978;-70
2023/04/01 11:46:10;;;;;;;0.08;0.08;;;11.20;1.00;;;;;;7366385;19;20078;-70
2023/04/01 11:48:53;;;;;;;0.13;0.10;;;11.20;1.00;;;;;;7364816;19;20010;-70
2023/04/01 11:51:51;;;;;;;0.20;0.10;;;11.30;1.00;;;;;;7367050;19;20010;-70
2023/04/01 11:54:34;;;;;;;0.20;0.13;;;11.40;1.00;;;;;;7366333;19;20118;-70
2023/04/01 11:57:21;;;;;;;0.28;0.20;;;11.40;1.00;;;;;;7367217;19;20027;-72
2023/04/01 12:00:05;;;;;;;0.22;0.20;;;11.50;1.00;;;;;;7387333;19;20031;-70
2023/04/01 12:02:46;;;;;;;0.40;0.25;;;11.50;1.00;;;;;;7365147;19;20031;-70
2023/04/01 12:05:40;;;;;;;1.35;0.20;;;11.50;1.00;;;;;;7366186;19;20379;-71
2023/04/01 12:08:24;;;;;;;0.20;0.10;;;11.30;1.00;;;;;;7365863;19;20494;-70
2023/04/01 12:11:02;;;;;;;0.63;0.20;;;11.30;1.00;;;;;;7363749;19;20017;-69
2023/04/01 12:13:44;;;;;;;0.20;0.10;;;11.40;1.00;;;;;;7365399;19;20023;-71
2023/04/01 12:16:40;;;;;;;0.30;0.10;;;11.40;1.00;;;;;;7366067;19;20013;-70
2023/04/01 12:19:20;;;;;;;0.40;0.20;;;11.50;1.00;;;;;;7365904;19;20014;-71
2023/04/01 12:22:06;;;;;;;0.40;0.10;;;11.60;1.00;;;;;;7367233;19;20022;-70
2023/04/01 12:24:49;;;;;;;0.40;0.40;;;11.60;1.00;;;;;;7364869;19;20199;-71
2023/04/01 12:27:44;;;;;;;0.43;0.32;;;11.50;1.00;;;;;;7365484;19;20092;-69
2023/04/01 12:31:05;;;;;;;0.60;0.30;;;11.60;1.00;;;;;;7362946;19;20017;-71
2023/04/01 12:34:02;;;;;;;0.32;0.20;;;11.70;1.00;;;;;;7365819;19;20796;-71
2023/04/01 12:36:46;;;;;;;0.32;0.20;;;11.70;1.00;;;;;;7367482;19;20381;-70
2023/04/01 12:39:50;;;;;;;0.50;0.20;;;11.70;1.00;;;;;;7369609;19;20059;-70
2023/04/01 12:42:36;;;;;;;1.30;0.20;;;11.80;1.00;;;;;;7372615;19;20022;-68
2023/04/01 12:45:31;;;;;;;0.70;0.22;;;11.80;1.00;;;;;;7373518;19;20101;-70
2023/04/01 12:48:14;;;;;;;;;;;11.70;1.00;;;;;;7373067;19;20018;-70
2023/04/01 12:51:19;;;;;;;0.50;0.20;;;11.60;1.00;;;;;;7392943;19;19948;-70
2023/04/01 12:54:16;;;;;;;3.90;0.35;;;11.70;1.00;;;;;;7370443;19;20446;-70
2023/04/01 12:56:56;;;;;;;0.20;0.13;;;11.60;1.00;;;;;;7372991;19;20018;-69
2023/04/01 12:59:51;;;;;;;0.20;0.15;;;11.60;1.00;;;;;;7370675;19;20039;-70
2023/04/01 13:02:36;;;;;;;1.30;0.10;;;11.50;1.00;;;;;;7369578;19;20014;-70
2023/04/01 13:05:34;;;;;;;0.82;0.13;;;11.40;1.00;;;;;;7390393;19;20021;-70
2023/04/01 13:08:18;;;;;;;0.45;0.22;;;11.50;1.00;;;;;;7397413;19;20019;-70
2023/04/01 13:11:01;;;;;;;0.10;0.10;;;11.40;1.00;;;;;;7388335;19;20369;-70
2023/04/01 13:14:07;;;;;;;0.40;0.20;;;11.50;1.00;;;;;;7374035;19;20471;-70
2023/04/01 13:16:50;;;;;;;0.10;0.10;;;11.30;1.00;;;;;;7373112;19;20010;-70
2023/04/01 13:19:27;;;;;;;0.20;0.15;;;11.10;1.00;;;;;;7367466;19;20013;-69
2023/04/01 13:22:02;;;;;;;2.38;0.32;;;10.90;1.00;;;;;;7374511;19;20455;-69
2023/04/01 13:24:48;;;;;;;0.63;0.30;;;10.80;1.00;;;;;;7372356;19;20014;-67
2023/04/01 13:27:21;;;;;;;0.68;0.40;;;10.70;1.00;;;;;;7374655;19;20018;-67
2023/04/01 13:30:04;;;;;;;0.45;0.20;;;10.70;1.00;;;;;;7391416;19;20014;-66
2023/04/01 13:32:43;;;;;;;0.85;0.10;;;10.70;1.00;;;;;;7372543;19;20010;-67
2023/04/01 13:35:36;;;;;;;0.00;0.00;;;10.70;1.00;;;;;;7373605;19;20031;-68
2023/04/01 13:38:39;;;;;;;0.17;0.10;;;10.70;1.00;;;;;;7372543;19;20029;-67
2023/04/01 13:41:17;;;;;;;0.10;0.10;;;10.70;1.00;;;;;;7371058;19;20467;-69
2023/04/01 13:43:53;;;;;;;0.30;0.20;;;10.80;1.00;;;;;;7371007;19;20442;-70
2023/04/01 13:46:57;;;;;;;0.20;0.10;;;10.90;1.00;;;;;;7371407;19;20034;-69
2023/04/01 13:49:40;;;;;;;0.20;0.10;;;10.90;1.00;;;;;;7367108;19;20025;-69
2023/04/01 13:52:34;;;;;;;0.20;0.20;;;10.90;1.00;;;;;;7372173;19;20080;-69
2023/04/01 13:55:34;;;;;;;0.08;0.03;;;10.90;1.00;;;;;;7366098;19;20046;-70
2023/04/01 13:58:28;;;;;;;0.73;0.20;;;10.70;1.00;;;;;;7367945;19;20021;-70
2023/04/01 14:01:06;;;;;;;0.40;0.20;;;10.60;1.00;;;;;;7362420;19;20047;-71
2023/04/01 14:04:00;;;;;;;0.38;0.20;;;10.60;1.00;;;;;;7366549;19;20015;-70
2023/04/01 14:06:37;;;;;;;0.38;0.17;;;10.50;1.00;;;;;;7370330;19;20026;-70
2023/04/01 14:09:33;;;;;;;0.65;0.35;;;10.60;1.00;;;;;;7366598;19;20029;-69
2023/04/01 14:12:08;;;;;;;0.70;0.22;;;10.60;1.00;;;;;;7368370;19;20034;-69
2023/04/01 14:14:49;;;;;;;0.63;0.10;;;10.70;1.00;;;;;;7391131;19;20108;-70